Time;durP1;ratioP1;P1;durP2;ratioP2;P2;SDS_P1;SDS_P2;PMS_P1;PMS_P2;Temp;Humidity;BMP_temperature;BMP_pressure;BME280_temperature;BME280_humidity;BME280_pressure;Samples;Min_cycle;Max_cycle;Signal;HPM_P1;HPM_P2
2021/10/20 00:02:11;;;;;;;81.88;34.45;;;16.00;99.90;;;;;;5008969;28;20036;-65
2021/10/20 00:04:37;;;;;;;91.57;33.70;;;16.10;99.90;;;;;;5041935;28;20369;-65
2021/10/20 00:07:03;;;;;;;86.68;32.70;;;16.00;99.90;;;;;;5043754;28;20049;-64
2021/10/20 00:09:29;;;;;;;83.05;33.20;;;16.10;99.90;;;;;;5043869;28;20029;-64
2021/10/20 00:11:54;;;;;;;86.85;35.08;;;16.10;99.90;;;;;;5040760;28;20025;-64
2021/10/20 00:14:21;;;;;;;94.88;35.83;;;16.00;99.90;;;;;;5043852;28;20295;-65
2021/10/20 00:16:47;;;;;;;81.53;32.05;;;16.00;99.90;;;;;;5040345;28;20032;-65
2021/10/20 00:19:14;;;;;;;83.40;32.17;;;16.00;99.90;;;;;;5042729;28;20080;-64
2021/10/20 00:21:40;;;;;;;77.40;31.30;;;16.00;99.90;;;;;;5044011;28;20021;-65
2021/10/20 00:24:06;;;;;;;77.13;33.75;;;16.10;99.90;;;;;;5042089;28;20055;-65
2021/10/20 00:26:32;;;;;;;69.22;30.48;;;16.00;99.90;;;;;;5038815;28;20050;-65
2021/10/20 00:28:57;;;;;;;76.20;32.05;;;16.10;99.90;;;;;;5043460;28;20379;-64
2021/10/20 00:31:23;;;;;;;82.32;32.47;;;16.10;99.90;;;;;;5040656;28;20214;-65
2021/10/20 00:33:49;;;;;;;86.53;30.55;;;16.10;99.90;;;;;;5043985;28;20226;-64
2021/10/20 00:36:16;;;;;;;73.65;30.98;;;16.10;99.90;;;;;;5039028;28;20108;-64
2021/10/20 00:38:42;;;;;;;77.32;31.33;;;16.10;99.90;;;;;;5009444;28;20240;-65
2021/10/20 00:41:09;;;;;;;87.65;32.70;;;16.10;99.90;;;;;;5041814;28;20025;-64
2021/10/20 00:43:35;;;;;;;80.80;31.98;;;16.10;99.90;;;;;;5041659;28;20068;-64
2021/10/20 00:46:01;;;;;;;80.32;32.83;;;16.10;99.90;;;;;;5042737;28;20021;-65
2021/10/20 00:48:28;;;;;;;87.07;32.08;;;16.10;99.90;;;;;;5044073;28;20045;-64
2021/10/20 00:50:54;;;;;;;84.25;32.03;;;16.10;99.90;;;;;;5039626;28;20044;-64
2021/10/20 00:53:20;;;;;;;77.85;32.28;;;16.10;99.90;;;;;;5042165;28;20282;-64
2021/10/20 00:55:46;;;;;;;74.15;30.75;;;16.10;99.90;;;;;;5043120;28;20029;-64
2021/10/20 00:58:12;;;;;;;71.93;30.15;;;16.10;99.90;;;;;;5039519;28;20029;-64
2021/10/20 01:00:38;;;;;;;70.40;29.33;;;16.00;99.90;;;;;;5040703;28;20032;-65
2021/10/20 01:03:04;;;;;;;75.30;29.13;;;16.10;99.90;;;;;;5043266;28;20029;-64
2021/10/20 01:05:31;;;;;;;73.40;30.13;;;16.10;99.90;;;;;;5042275;28;20399;-65
2021/10/20 01:07:56;;;;;;;81.22;28.98;;;16.10;99.90;;;;;;5042498;28;20382;-65
2021/10/20 01:10:23;;;;;;;78.90;30.42;;;16.00;99.90;;;;;;5040699;28;20135;-65
2021/10/20 01:12:53;;;;;;;72.97;30.38;;;16.10;99.90;;;;;;5039345;28;20270;-64
2021/10/20 01:15:21;;;;;;;70.90;29.05;;;16.10;99.90;;;;;;5041981;28;20136;-65
2021/10/20 01:17:48;;;;;;;78.65;29.52;;;16.10;99.90;;;;;;5044314;28;20401;-65
2021/10/20 01:20:15;;;;;;;67.22;30.15;;;16.10;99.90;;;;;;5040409;28;20039;-65
2021/10/20 01:22:42;;;;;;;83.93;30.30;;;16.10;99.90;;;;;;5044117;28;20210;-65
2021/10/20 01:25:09;;;;;;;73.78;29.63;;;16.10;99.90;;;;;;5041097;28;20033;-65
2021/10/20 01:27:35;;;;;;;70.10;28.90;;;16.10;99.90;;;;;;5039552;28;20100;-64
2021/10/20 01:30:03;;;;;;;70.03;29.17;;;16.10;99.90;;;;;;5041689;28;20071;-65
2021/10/20 01:32:29;;;;;;;70.22;28.90;;;16.10;99.90;;;;;;5027230;28;20279;-66
2021/10/20 01:34:56;;;;;;;62.00;28.83;;;16.10;99.90;;;;;;5006653;28;20138;-65
2021/10/20 01:37:26;;;;;;;71.57;28.80;;;16.10;99.90;;;;;;5041469;28;20232;-65
2021/10/20 01:39:56;;;;;;;79.15;29.45;;;16.10;99.90;;;;;;5039619;28;20426;-64
2021/10/20 01:42:23;;;;;;;73.85;28.75;;;16.10;99.90;;;;;;5038599;28;20107;-64
2021/10/20 01:44:49;;;;;;;70.90;29.58;;;16.00;99.90;;;;;;5040024;28;20043;-64
2021/10/20 01:47:15;;;;;;;79.35;30.77;;;16.00;99.90;;;;;;5039274;28;20347;-65
2021/10/20 01:49:41;;;;;;;73.55;29.45;;;16.00;99.90;;;;;;5038610;28;20025;-65
2021/10/20 01:52:07;;;;;;;68.95;28.73;;;16.00;99.90;;;;;;5040394;28;20061;-65
2021/10/20 01:54:33;;;;;;;62.50;27.02;;;16.00;99.90;;;;;;5038980;28;20216;-65
2021/10/20 01:56:59;;;;;;;58.13;25.42;;;16.00;99.90;;;;;;5039488;28;20025;-65
2021/10/20 01:59:24;;;;;;;71.97;27.20;;;16.00;99.90;;;;;;5038513;28;20049;-65
2021/10/20 02:01:50;;;;;;;57.35;26.80;;;16.00;99.90;;;;;;5041883;28;20338;-65
2021/10/20 02:04:16;;;;;;;50.85;25.13;;;16.00;99.90;;;;;;5038503;28;20036;-65
2021/10/20 02:06:43;;;;;;;51.20;24.38;;;16.00;99.90;;;;;;5043143;28;20078;-65
2021/10/20 02:09:12;;;;;;;41.72;20.80;;;16.00;99.90;;;;;;5040238;28;20025;-64
2021/10/20 02:11:41;;;;;;;43.67;21.85;;;15.90;99.90;;;;;;5041252;28;20098;-65
2021/10/20 02:14:08;;;;;;;49.50;22.33;;;15.90;99.90;;;;;;5039814;28;20241;-65
2021/10/20 02:16:34;;;;;;;38.25;21.15;;;15.90;99.90;;;;;;5040776;28;20036;-65
2021/10/20 02:19:01;;;;;;;42.00;21.27;;;15.90;99.90;;;;;;5041559;28;20040;-65
2021/10/20 02:21:27;;;;;;;41.88;22.33;;;15.90;99.90;;;;;;5038315;28;20032;-65
2021/10/20 02:23:52;;;;;;;41.22;22.42;;;15.90;99.90;;;;;;5039827;28;20280;-65
2021/10/20 02:26:18;;;;;;;41.35;22.13;;;15.90;99.90;;;;;;5040754;28;20313;-66
2021/10/20 02:28:45;;;;;;;47.13;22.90;;;15.90;99.90;;;;;;5040399;28;20319;-65
2021/10/20 02:31:10;;;;;;;53.42;24.17;;;15.90;99.90;;;;;;5042425;28;20048;-65
2021/10/20 02:33:36;;;;;;;39.85;21.90;;;15.90;99.90;;;;;;5039236;28;20041;-65
2021/10/20 02:36:03;;;;;;;41.97;22.38;;;15.90;99.90;;;;;;5038683;28;20311;-65
2021/10/20 02:38:29;;;;;;;43.78;22.40;;;15.80;99.90;;;;;;5040074;28;20025;-65
2021/10/20 02:40:54;;;;;;;43.72;23.48;;;15.80;99.90;;;;;;5040825;28;20117;-65
2021/10/20 02:43:20;;;;;;;46.13;22.67;;;15.80;99.90;;;;;;5038534;28;20422;-65
2021/10/20 02:45:46;;;;;;;51.58;24.55;;;15.80;99.90;;;;;;5040039;28;20036;-66
2021/10/20 02:48:12;;;;;;;48.92;25.33;;;15.80;99.90;;;;;;5041200;28;20064;-65
2021/10/20 02:50:38;;;;;;;58.35;27.73;;;15.80;99.90;;;;;;5037166;28;20112;-65
2021/10/20 02:53:04;;;;;;;67.10;28.85;;;15.80;99.90;;;;;;5041113;28;20359;-66
2021/10/20 02:55:30;;;;;;;56.22;28.02;;;15.80;99.90;;;;;;5038919;28;20036;-65
2021/10/20 02:57:56;;;;;;;57.60;28.75;;;15.80;99.90;;;;;;5041231;28;20096;-65
2021/10/20 03:00:22;;;;;;;63.78;28.25;;;15.80;99.90;;;;;;5036578;28;20032;-65
2021/10/20 03:02:52;;;;;;;61.42;29.17;;;15.80;99.90;;;;;;5040887;28;20436;-65
2021/10/20 03:05:21;;;;;;;62.33;28.10;;;15.80;99.90;;;;;;5039348;28;20100;-65
2021/10/20 03:08:05;;;;;;;71.32;30.25;;;15.80;99.90;;;;;;5024363;28;20336;-66
2021/10/20 03:10:31;;;;;;;72.72;30.48;;;15.80;99.90;;;;;;5038427;28;20346;-65
2021/10/20 03:12:57;;;;;;;68.18;31.17;;;15.80;99.90;;;;;;5040097;28;20477;-64
2021/10/20 03:15:23;;;;;;;77.20;31.45;;;15.80;99.90;;;;;;5023408;28;20387;-65
2021/10/20 03:17:49;;;;;;;73.75;32.90;;;15.80;99.90;;;;;;5036939;28;20036;-66
2021/10/20 03:20:14;;;;;;;84.35;32.28;;;15.80;99.90;;;;;;5039795;28;20047;-65
2021/10/20 03:22:43;;;;;;;89.05;33.75;;;15.80;99.90;;;;;;5020866;28;20049;-65
2021/10/20 03:25:10;;;;;;;85.97;32.60;;;15.80;99.90;;;;;;5040203;28;20082;-65
2021/10/20 03:27:40;;;;;;;72.85;29.77;;;15.80;99.90;;;;;;5040385;28;20042;-65
2021/10/20 03:30:07;;;;;;;73.82;30.25;;;15.80;99.90;;;;;;5040061;28;20375;-65
2021/10/20 03:32:32;;;;;;;69.40;28.20;;;15.80;99.90;;;;;;5034332;28;20033;-65
2021/10/20 03:34:58;;;;;;;62.88;28.70;;;15.80;99.90;;;;;;5040513;28;20025;-65
2021/10/20 03:37:24;;;;;;;75.15;29.92;;;15.80;99.90;;;;;;5034142;28;20026;-65
2021/10/20 03:39:50;;;;;;;70.68;28.33;;;15.80;99.90;;;;;;5040541;28;20056;-65
2021/10/20 03:42:16;;;;;;;64.53;28.42;;;15.80;99.90;;;;;;5035555;28;20060;-64
2021/10/20 03:44:42;;;;;;;80.10;29.33;;;15.80;99.90;;;;;;5040374;28;20240;-65
2021/10/20 03:47:08;;;;;;;70.78;27.20;;;15.80;99.90;;;;;;5037279;28;20045;-64
2021/10/20 03:49:33;;;;;;;58.30;25.90;;;15.80;99.90;;;;;;5035149;28;20245;-64
2021/10/20 03:51:59;;;;;;;65.63;25.02;;;15.80;99.90;;;;;;5031801;28;20103;-64
2021/10/20 03:54:25;;;;;;;58.15;24.95;;;15.80;99.90;;;;;;5021119;28;20034;-64
2021/10/20 03:56:51;;;;;;;56.97;24.38;;;15.80;99.90;;;;;;5039441;28;20063;-65
2021/10/20 03:59:17;;;;;;;52.70;22.55;;;15.80;99.90;;;;;;5039319;28;20025;-64
2021/10/20 04:01:42;;;;;;;52.70;21.52;;;15.80;99.90;;;;;;5029142;28;20105;-64
2021/10/20 04:04:08;;;;;;;49.15;21.67;;;15.80;99.90;;;;;;5035684;28;20037;-65
2021/10/20 04:06:34;;;;;;;59.60;22.63;;;15.80;99.90;;;;;;5031796;28;20066;-65
2021/10/20 04:09:00;;;;;;;47.50;21.35;;;15.80;99.90;;;;;;5031541;28;20033;-65
2021/10/20 04:11:26;;;;;;;52.47;22.85;;;15.80;99.90;;;;;;5025567;28;20056;-66
2021/10/20 04:13:52;;;;;;;49.42;21.15;;;15.90;99.90;;;;;;5033741;28;20113;-65
2021/10/20 04:16:18;;;;;;;55.15;21.73;;;15.90;99.90;;;;;;5028868;28;20044;-65
2021/10/20 04:18:44;;;;;;;45.70;20.55;;;15.80;99.90;;;;;;5031493;28;20033;-66
2021/10/20 04:21:10;;;;;;;45.88;20.42;;;15.80;99.90;;;;;;5037498;28;20035;-65
2021/10/20 04:23:36;;;;;;;42.60;18.95;;;15.80;99.90;;;;;;5039995;28;20119;-65
2021/10/20 04:26:02;;;;;;;47.65;19.83;;;15.80;99.90;;;;;;5036940;28;20312;-65
2021/10/20 04:28:28;;;;;;;46.10;17.95;;;15.80;99.90;;;;;;5036075;28;20049;-65
2021/10/20 04:30:54;;;;;;;45.78;18.35;;;15.80;99.90;;;;;;5040480;28;20023;-65
2021/10/20 04:33:19;;;;;;;50.13;19.40;;;15.70;99.90;;;;;;5020499;28;20037;-66
2021/10/20 04:35:45;;;;;;;41.05;15.73;;;15.80;99.90;;;;;;5036309;28;20021;-66
2021/10/20 04:38:11;;;;;;;41.05;15.65;;;15.70;99.90;;;;;;5039092;28;20084;-65
2021/10/20 04:40:37;;;;;;;39.90;17.38;;;15.80;99.90;;;;;;5018755;28;20032;-65
2021/10/20 04:43:03;;;;;;;39.08;16.50;;;15.80;99.90;;;;;;5041662;28;20086;-80
2021/10/20 04:45:29;;;;;;;50.05;17.77;;;15.80;99.90;;;;;;5041069;28;20048;-79
2021/10/20 04:47:55;;;;;;;39.42;15.48;;;15.70;99.90;;;;;;5039305;28;20095;-82
2021/10/20 04:50:20;;;;;;;42.17;16.75;;;15.80;99.90;;;;;;5038785;28;20071;-79
2021/10/20 04:52:46;;;;;;;39.70;17.52;;;15.70;99.90;;;;;;5043914;28;20085;-81
2021/10/20 04:55:12;;;;;;;45.67;18.83;;;15.70;99.90;;;;;;5042916;28;20704;-80
2021/10/20 04:57:38;;;;;;;44.20;18.00;;;15.80;99.90;;;;;;5043727;28;20033;-80
2021/10/20 05:00:06;;;;;;;48.10;18.02;;;15.70;99.90;;;;;;5042893;28;20047;-78
2021/10/20 05:02:35;;;;;;;45.55;18.52;;;15.70;99.90;;;;;;5043624;28;20053;-79
2021/10/20 05:05:04;;;;;;;52.08;18.38;;;15.70;99.90;;;;;;5044582;28;20197;-81
2021/10/20 05:07:29;;;;;;;47.80;18.37;;;15.80;99.90;;;;;;5043047;28;20038;-84
2021/10/20 05:09:55;;;;;;;48.33;18.65;;;15.80;99.90;;;;;;5044664;28;20391;-79
2021/10/20 05:12:22;;;;;;;48.80;16.98;;;15.80;99.90;;;;;;5043713;28;20017;-80
2021/10/20 05:14:48;;;;;;;46.80;17.23;;;15.70;99.90;;;;;;5044646;28;20029;-80
2021/10/20 05:17:13;;;;;;;40.97;16.77;;;15.70;99.90;;;;;;5044580;28;20469;-82
2021/10/20 05:19:39;;;;;;;41.45;17.63;;;15.70;99.90;;;;;;5043905;28;20028;-77
2021/10/20 05:22:08;;;;;;;42.05;16.30;;;15.70;99.90;;;;;;5044876;28;20025;-83
2021/10/20 05:24:34;;;;;;;36.25;16.40;;;15.70;99.90;;;;;;5043707;28;20023;-80
2021/10/20 05:27:00;;;;;;;37.65;15.85;;;15.70;99.90;;;;;;5043721;28;20037;-78
2021/10/20 05:29:32;;;;;;;39.10;15.65;;;15.70;99.90;;;;;;5043185;28;20262;-80
2021/10/20 05:31:59;;;;;;;45.97;15.48;;;15.70;99.90;;;;;;5042075;28;20026;-80
2021/10/20 05:34:25;;;;;;;33.40;14.57;;;15.70;99.90;;;;;;5040056;28;20119;-81
2021/10/20 05:36:51;;;;;;;29.88;13.25;;;15.70;99.90;;;;;;5043029;28;20032;-75
2021/10/20 05:39:17;;;;;;;29.65;13.40;;;15.70;99.90;;;;;;5044206;28;20026;-75
2021/10/20 05:41:43;;;;;;;39.95;14.82;;;15.70;99.90;;;;;;5043848;28;20325;-74
2021/10/20 05:44:09;;;;;;;27.10;13.40;;;15.70;99.90;;;;;;5043670;28;20033;-78
2021/10/20 05:46:34;;;;;;;31.92;12.90;;;15.70;99.90;;;;;;5043532;28;20405;-76
2021/10/20 05:49:00;;;;;;;24.08;12.55;;;15.70;99.90;;;;;;5023523;28;20354;-77
2021/10/20 05:51:26;;;;;;;26.33;12.55;;;15.70;99.90;;;;;;5043208;28;20092;-76
2021/10/20 05:53:52;;;;;;;20.05;11.43;;;15.70;99.90;;;;;;5043711;28;20029;-75
2021/10/20 05:56:17;;;;;;;34.75;11.30;;;15.70;99.90;;;;;;5043849;28;20152;-76
2021/10/20 05:58:43;;;;;;;26.65;11.82;;;15.70;99.90;;;;;;5043613;28;20025;-76
2021/10/20 06:01:12;;;;;;;22.48;11.52;;;15.70;99.90;;;;;;5042354;28;20044;-77
2021/10/20 06:03:38;;;;;;;22.77;11.38;;;15.70;99.90;;;;;;5042922;28;20029;-77
2021/10/20 06:06:04;;;;;;;23.15;11.73;;;15.70;99.90;;;;;;5043891;28;20065;-77
2021/10/20 06:08:29;;;;;;;19.75;10.63;;;15.70;99.90;;;;;;5043304;28;20327;-76
2021/10/20 06:10:55;;;;;;;25.60;11.35;;;15.70;99.90;;;;;;5043549;28;20319;-76
2021/10/20 06:13:21;;;;;;;23.17;10.57;;;15.70;99.90;;;;;;5043202;28;20049;-77
2021/10/20 06:15:47;;;;;;;22.70;10.63;;;15.70;99.90;;;;;;5043267;28;20029;-78
2021/10/20 06:18:13;;;;;;;23.33;10.07;;;15.70;99.90;;;;;;5043246;28;20100;-75
2021/10/20 06:20:39;;;;;;;21.45;10.18;;;15.70;99.90;;;;;;5043368;28;20051;-76
2021/10/20 06:23:05;;;;;;;23.88;10.05;;;15.70;99.90;;;;;;4992741;28;20622;-75
2021/10/20 06:25:31;;;;;;;17.85;9.73;;;15.70;99.90;;;;;;5043903;28;20033;-76
2021/10/20 06:27:57;;;;;;;17.30;9.30;;;15.70;99.90;;;;;;5042768;28;20061;-74
2021/10/20 06:30:23;;;;;;;17.55;8.75;;;15.70;99.90;;;;;;5043538;28;20021;-77
2021/10/20 06:32:49;;;;;;;17.63;8.70;;;15.70;99.90;;;;;;5042219;28;20029;-78
2021/10/20 06:35:15;;;;;;;23.23;8.40;;;15.70;99.90;;;;;;5042250;28;20036;-76
2021/10/20 06:37:51;;;;;;;17.98;8.68;;;15.70;99.90;;;;;;5043013;28;20025;-76
2021/10/20 06:40:16;;;;;;;18.05;8.95;;;15.70;99.90;;;;;;5043319;28;20052;-77
2021/10/20 06:42:42;;;;;;;17.45;9.43;;;15.70;99.90;;;;;;5042981;28;20314;-77
2021/10/20 06:45:09;;;;;;;19.25;9.02;;;15.70;99.90;;;;;;5025164;28;20029;-78
2021/10/20 06:47:35;;;;;;;19.50;9.52;;;15.70;99.90;;;;;;5042734;28;20132;-78
2021/10/20 06:50:01;;;;;;;16.52;8.85;;;15.70;99.90;;;;;;5042991;28;20026;-77
2021/10/20 06:52:27;;;;;;;20.92;9.52;;;15.70;99.90;;;;;;5039063;28;20103;-78
2021/10/20 06:54:52;;;;;;;19.63;9.18;;;15.70;99.90;;;;;;5039184;28;20048;-78
2021/10/20 06:57:18;;;;;;;19.55;10.32;;;15.70;99.90;;;;;;5042637;28;20038;-77
2021/10/20 06:59:44;;;;;;;17.45;8.73;;;15.70;99.90;;;;;;5041764;28;20021;-77
2021/10/20 07:02:10;;;;;;;20.00;9.15;;;15.70;99.90;;;;;;5042671;28;20028;-79
2021/10/20 07:04:36;;;;;;;17.70;9.38;;;15.70;99.90;;;;;;5042611;28;20035;-77
2021/10/20 07:07:01;;;;;;;20.08;9.23;;;15.70;99.90;;;;;;5041822;28;20036;-76
2021/10/20 07:09:27;;;;;;;19.65;9.52;;;15.70;99.90;;;;;;5042628;28;20230;-75
2021/10/20 07:11:53;;;;;;;17.88;9.45;;;15.70;99.90;;;;;;5042067;28;20025;-75
2021/10/20 07:14:19;;;;;;;20.65;8.05;;;15.70;99.90;;;;;;5042523;28;20159;-75
2021/10/20 07:16:45;;;;;;;11.70;7.28;;;15.70;99.90;;;;;;5042251;28;20028;-74
2021/10/20 07:19:11;;;;;;;10.82;5.88;;;15.70;99.90;;;;;;5043031;28;20223;-75
2021/10/20 07:21:38;;;;;;;10.35;5.25;;;15.70;99.90;;;;;;5042235;28;20495;-75
2021/10/20 07:24:04;;;;;;;10.68;4.88;;;15.70;99.90;;;;;;5042079;28;20106;-74
2021/10/20 07:26:31;;;;;;;13.90;4.78;;;15.70;99.90;;;;;;5042167;28;20218;-75
2021/10/20 07:28:57;;;;;;;8.35;4.93;;;15.70;99.90;;;;;;5041521;28;20371;-75
2021/10/20 07:31:29;;;;;;;8.23;4.43;;;15.70;99.90;;;;;;5041048;28;20017;-76
2021/10/20 07:33:56;;;;;;;10.30;4.95;;;15.70;99.90;;;;;;5041481;28;20024;-76
2021/10/20 07:36:22;;;;;;;10.00;4.68;;;15.70;99.90;;;;;;5041857;28;20056;-75
2021/10/20 07:38:48;;;;;;;12.68;5.10;;;15.60;99.90;;;;;;5042658;28;20210;-76
2021/10/20 07:41:14;;;;;;;13.57;5.60;;;15.70;99.90;;;;;;5041885;28;20476;-76
2021/10/20 07:43:40;;;;;;;12.13;5.07;;;15.70;99.90;;;;;;5042131;28;20018;-76
2021/10/20 07:46:06;;;;;;;10.15;4.40;;;15.60;99.90;;;;;;5040928;28;20043;-75
2021/10/20 07:48:32;;;;;;;10.48;4.85;;;15.70;99.90;;;;;;5041914;28;20037;-75
2021/10/20 07:50:58;;;;;;;10.15;4.18;;;15.70;99.90;;;;;;5040133;28;20025;-75
2021/10/20 07:53:24;;;;;;;9.55;4.07;;;15.60;99.90;;;;;;5041005;28;20116;-75
2021/10/20 07:55:49;;;;;;;7.72;3.80;;;15.70;99.90;;;;;;5040436;28;20028;-76
2021/10/20 07:58:16;;;;;;;13.90;4.75;;;15.70;99.90;;;;;;5041244;28;20083;-76
2021/10/20 08:00:41;;;;;;;12.52;5.57;;;15.70;99.90;;;;;;5039469;28;20061;-76
2021/10/20 08:03:07;;;;;;;10.82;5.43;;;15.70;99.90;;;;;;5040853;28;20025;-76
2021/10/20 08:05:33;;;;;;;14.32;6.10;;;15.70;99.90;;;;;;5024048;28;20029;-76
2021/10/20 08:07:59;;;;;;;14.25;7.78;;;15.70;99.90;;;;;;5041528;28;20037;-78
2021/10/20 08:10:28;;;;;;;17.88;7.55;;;15.70;99.90;;;;;;5024193;28;20185;-78
2021/10/20 08:12:57;;;;;;;18.57;8.03;;;15.60;99.90;;;;;;5041386;28;20055;-78
2021/10/20 08:15:24;;;;;;;29.48;9.98;;;15.60;99.90;;;;;;5040592;28;20069;-80
2021/10/20 08:17:51;;;;;;;21.77;9.18;;;15.60;99.90;;;;;;5043472;28;20102;-80
2021/10/20 08:20:21;;;;;;;17.83;8.68;;;15.70;99.90;;;;;;5044705;28;20327;-77
2021/10/20 08:22:48;;;;;;;30.27;10.77;;;15.60;99.90;;;;;;5044975;28;20103;-80
2021/10/20 08:25:14;;;;;;;28.98;10.52;;;15.60;99.90;;;;;;5045388;28;20279;-78
2021/10/20 08:27:41;;;;;;;30.77;12.15;;;15.60;99.90;;;;;;5045428;28;20033;-78
2021/10/20 08:30:15;;;;;;;35.38;12.25;;;15.70;99.90;;;;;;5045723;28;20029;-79
2021/10/20 08:32:41;;;;;;;33.42;11.43;;;15.60;99.90;;;;;;5045303;28;20068;-80
2021/10/20 08:35:08;;;;;;;29.08;12.00;;;15.60;99.90;;;;;;5027423;28;20033;-80
2021/10/20 08:37:34;;;;;;;26.80;11.85;;;15.60;99.90;;;;;;5044790;28;20092;-79
2021/10/20 08:39:59;;;;;;;33.63;11.77;;;15.60;99.90;;;;;;5027460;28;20057;-78
2021/10/20 08:42:25;;;;;;;32.80;12.38;;;15.60;99.90;;;;;;5045545;28;20025;-79
2021/10/20 08:44:51;;;;;;;32.78;13.05;;;15.70;99.90;;;;;;5045300;28;20257;-78
2021/10/20 08:47:18;;;;;;;24.75;11.73;;;15.70;99.90;;;;;;5045274;28;20299;-77
2021/10/20 08:49:46;;;;;;;34.30;13.07;;;15.70;99.90;;;;;;5045931;28;20033;-80
2021/10/20 08:52:12;;;;;;;29.80;13.02;;;15.70;99.90;;;;;;5026805;28;20136;-78
2021/10/20 08:54:37;;;;;;;35.67;12.57;;;15.70;99.90;;;;;;5044379;28;20359;-78
2021/10/20 08:57:04;;;;;;;35.38;13.35;;;15.70;99.90;;;;;;5044578;28;20031;-78
2021/10/20 08:59:32;;;;;;;35.20;13.20;;;15.70;99.90;;;;;;5042969;28;20039;-78
2021/10/20 09:02:03;;;;;;;31.15;12.60;;;15.70;99.90;;;;;;5042267;28;20052;-78
2021/10/20 09:04:36;;;;;;;24.55;10.75;;;15.70;99.90;;;;;;5043751;28;20033;-79
2021/10/20 09:07:11;;;;;;;34.22;12.52;;;15.70;99.90;;;;;;5043558;28;20033;-78
2021/10/20 09:09:37;;;;;;;31.85;12.55;;;15.70;99.90;;;;;;5044842;28;20028;-78
2021/10/20 09:12:03;;;;;;;32.83;12.95;;;15.70;99.90;;;;;;5044458;28;20052;-78
2021/10/20 09:14:29;;;;;;;41.05;13.80;;;15.70;99.90;;;;;;5025453;28;20029;-81
2021/10/20 09:16:55;;;;;;;32.95;14.07;;;15.70;99.90;;;;;;5044514;28;20091;-79
2021/10/20 09:19:32;;;;;;;31.55;13.25;;;15.60;99.90;;;;;;5043078;28;20033;-78
2021/10/20 09:22:03;;;;;;;37.55;12.43;;;15.60;99.90;;;;;;5044011;28;20052;-77
2021/10/20 09:24:35;;;;;;;34.13;12.57;;;15.70;99.90;;;;;;5041203;28;20029;-80
2021/10/20 09:27:02;;;;;;;26.63;11.98;;;15.60;99.90;;;;;;5043152;28;20044;-78
2021/10/20 09:29:30;;;;;;;43.55;13.73;;;15.60;99.90;;;;;;5041562;28;20021;-79
2021/10/20 09:31:56;;;;;;;39.33;14.30;;;15.60;99.90;;;;;;5044482;28;20274;-78
2021/10/20 09:34:32;;;;;;;35.63;12.52;;;15.50;99.90;;;;;;5044205;28;20066;-78
2021/10/20 09:36:59;;;;;;;34.38;12.77;;;15.50;99.90;;;;;;5044223;28;20311;-76
2021/10/20 09:39:25;;;;;;;37.05;13.40;;;15.50;99.90;;;;;;5044065;28;20037;-79
2021/10/20 09:42:03;;;;;;;40.70;12.32;;;15.50;99.90;;;;;;5043793;28;20124;-82
2021/10/20 09:44:29;;;;;;;34.97;12.05;;;15.50;99.90;;;;;;5043881;28;20255;-78
2021/10/20 09:46:55;;;;;;;30.67;10.32;;;15.50;99.90;;;;;;5044488;28;20043;-79
2021/10/20 09:49:23;;;;;;;34.85;11.98;;;15.50;99.90;;;;;;5009920;28;20031;-80
2021/10/20 09:51:56;;;;;;;26.45;10.98;;;15.40;99.90;;;;;;5042409;28;20457;-78
2021/10/20 09:54:33;;;;;;;35.08;12.05;;;15.40;99.90;;;;;;5043774;28;20275;-81
2021/10/20 09:57:01;;;;;;;32.67;11.65;;;15.40;99.90;;;;;;5043862;28;20029;-78
2021/10/20 09:59:29;;;;;;;29.92;10.63;;;15.40;99.90;;;;;;5044072;28;20059;-80
2021/10/20 10:01:55;;;;;;;34.30;11.70;;;15.40;99.90;;;;;;5043519;28;20033;-79
2021/10/20 10:04:21;;;;;;;26.33;10.15;;;15.40;99.90;;;;;;5043895;28;20119;-78
2021/10/20 10:06:49;;;;;;;34.35;11.27;;;15.40;99.90;;;;;;5043457;28;20092;-78
2021/10/20 10:09:15;;;;;;;30.67;10.52;;;15.40;99.90;;;;;;5043445;28;20040;-79
2021/10/20 10:11:48;;;;;;;31.45;11.32;;;15.40;99.90;;;;;;5043292;28;20083;-78
2021/10/20 10:14:17;;;;;;;31.48;11.30;;;15.40;99.90;;;;;;5043148;28;20032;-78
2021/10/20 10:16:45;;;;;;;34.08;11.07;;;15.40;99.90;;;;;;5042916;28;20506;-80
2021/10/20 10:19:11;;;;;;;33.70;10.98;;;15.40;99.90;;;;;;5043503;28;20037;-79
2021/10/20 10:21:40;;;;;;;32.35;12.05;;;15.40;99.90;;;;;;5041791;28;20029;-79
2021/10/20 10:24:17;;;;;;;31.23;10.23;;;15.40;99.90;;;;;;5042848;28;20030;-79
2021/10/20 10:27:09;;;;;;;24.45;9.30;;;15.30;99.90;;;;;;5043340;28;20064;-77
2021/10/20 10:29:55;;;;;;;30.75;10.45;;;15.40;99.90;;;;;;5040311;28;20223;-79
2021/10/20 10:32:26;;;;;;;26.90;9.60;;;15.30;99.90;;;;;;5040546;28;20080;-79
2021/10/20 10:34:52;;;;;;;29.75;10.18;;;15.30;99.90;;;;;;5023584;28;20032;-78
2021/10/20 10:37:29;;;;;;;27.90;9.80;;;15.30;99.90;;;;;;5041802;28;20052;-80
2021/10/20 10:39:55;;;;;;;26.52;9.30;;;15.30;99.90;;;;;;5043042;28;20311;-79
2021/10/20 10:42:33;;;;;;;28.05;9.68;;;15.30;99.90;;;;;;5040772;28;20028;-79
2021/10/20 10:45:10;;;;;;;25.92;8.82;;;15.30;99.90;;;;;;5022883;28;20036;-78
2021/10/20 10:48:01;;;;;;;32.20;9.05;;;15.40;99.90;;;;;;5042889;28;20127;-77
2021/10/20 10:50:48;;;;;;;33.92;10.82;;;15.30;99.90;;;;;;5042537;28;20381;-79
2021/10/20 10:53:35;;;;;;;27.63;9.82;;;15.40;99.90;;;;;;5042088;28;20096;-76
2021/10/20 10:56:13;;;;;;;34.78;10.25;;;15.50;99.90;;;;;;5042837;28;20087;-77
2021/10/20 10:59:08;;;;;;;36.05;8.88;;;15.50;99.90;;;;;;5043028;28;20123;-76
2021/10/20 11:01:48;;;;;;;29.65;9.40;;;15.50;99.90;;;;;;5041848;28;20025;-77
2021/10/20 11:04:21;;;;;;;29.15;9.50;;;15.50;99.90;;;;;;5042676;28;20025;-78
2021/10/20 11:06:48;;;;;;;34.47;9.52;;;15.40;99.90;;;;;;5042257;28;20212;-78
2021/10/20 11:09:21;;;;;;;27.73;8.82;;;15.40;99.90;;;;;;5042411;28;20052;-82
2021/10/20 11:11:48;;;;;;;28.95;9.30;;;15.50;99.90;;;;;;5042960;28;20021;-79
2021/10/20 11:14:15;;;;;;;32.67;9.00;;;15.40;99.90;;;;;;5042074;28;20072;-80
2021/10/20 11:16:41;;;;;;;28.55;9.57;;;15.50;99.90;;;;;;5042036;28;20033;-79
2021/10/20 11:19:07;;;;;;;33.72;8.68;;;15.50;99.90;;;;;;5042622;28;20031;-81
2021/10/20 11:21:33;;;;;;;32.35;9.02;;;15.50;99.90;;;;;;5041952;28;20278;-81
2021/10/20 11:23:59;;;;;;;36.15;9.38;;;15.50;99.90;;;;;;5042439;28;20053;-78
2021/10/20 11:26:25;;;;;;;40.45;10.18;;;15.40;99.90;;;;;;5041579;28;20029;-79
2021/10/20 11:28:51;;;;;;;34.75;8.80;;;15.40;99.90;;;;;;5041522;28;20028;-81
2021/10/20 11:31:16;;;;;;;33.65;8.52;;;15.40;99.90;;;;;;5042165;28;20087;-82
2021/10/20 11:33:45;;;;;;;34.20;9.80;;;15.40;99.90;;;;;;5043042;28;20077;-78
2021/10/20 11:36:19;;;;;;;32.63;8.45;;;15.30;99.90;;;;;;5041766;28;20064;-80
2021/10/20 11:38:46;;;;;;;38.85;9.45;;;15.30;99.90;;;;;;5041270;28;20375;-83
2021/10/20 11:41:18;;;;;;;34.53;9.05;;;15.30;99.90;;;;;;5044281;28;20328;-78
2021/10/20 11:43:45;;;;;;;35.55;9.27;;;15.20;99.90;;;;;;5024191;28;20331;-81
2021/10/20 11:46:16;;;;;;;37.78;8.68;;;15.20;99.90;;;;;;5041345;28;20025;-81
2021/10/20 11:48:42;;;;;;;39.08;9.45;;;15.20;99.90;;;;;;5041464;28;20029;-78
2021/10/20 11:51:09;;;;;;;45.53;10.93;;;15.20;99.90;;;;;;5037503;28;20029;-76
2021/10/20 11:53:35;;;;;;;45.08;9.85;;;15.20;99.90;;;;;;5045951;28;20276;-77
2021/10/20 11:56:02;;;;;;;41.63;9.52;;;15.20;99.90;;;;;;5048675;28;20075;-81
2021/10/20 11:58:30;;;;;;;32.22;9.40;;;15.30;99.90;;;;;;5044913;28;20132;-79
2021/10/20 12:01:01;;;;;;;35.88;9.30;;;15.30;99.90;;;;;;5046500;28;20025;-81
2021/10/20 12:03:40;;;;;;;34.00;8.50;;;15.30;99.90;;;;;;5047990;28;20044;-79
2021/10/20 12:06:09;;;;;;;31.07;8.77;;;15.30;99.90;;;;;;5047937;28;20371;-80
2021/10/20 12:08:43;;;;;;;42.17;10.23;;;15.30;99.90;;;;;;5030425;28;20351;-80
2021/10/20 12:11:09;;;;;;;38.05;8.60;;;15.30;99.90;;;;;;5048232;28;20414;-81
2021/10/20 12:13:36;;;;;;;33.83;10.43;;;15.20;99.90;;;;;;5030062;28;20040;-80
2021/10/20 12:16:03;;;;;;;31.52;8.57;;;15.20;99.90;;;;;;5030377;28;20239;-80
2021/10/20 12:18:30;;;;;;;37.00;9.07;;;15.30;99.90;;;;;;5048307;28;20389;-79
2021/10/20 12:20:58;;;;;;;38.80;8.88;;;15.30;99.90;;;;;;5048442;28;20028;-77
2021/10/20 12:23:32;;;;;;;41.67;9.57;;;15.30;99.90;;;;;;5048299;28;20048;-80
2021/10/20 12:25:58;;;;;;;39.75;9.70;;;15.30;99.90;;;;;;5047935;28;20076;-78
2021/10/20 12:28:25;;;;;;;31.65;8.00;;;15.30;99.90;;;;;;5047982;28;20037;-78
2021/10/20 12:30:52;;;;;;;34.85;8.80;;;15.20;99.90;;;;;;5047911;28;20028;-81
2021/10/20 12:33:21;;;;;;;40.70;8.77;;;15.20;99.90;;;;;;5048462;28;20033;-81